Time;durP1;ratioP1;P1;durP2;ratioP2;P2;SDS_P1;SDS_P2;PMS_P1;PMS_P2;Temp;Humidity;BMP_temperature;BMP_pressure;BME280_temperature;BME280_humidity;BME280_pressure;Samples;Min_cycle;Max_cycle;Signal;HPM_P1;HPM_P2
2023/01/14 00:01:11;;;;;;;0.40;0.33;;;7.20;99.90;7.00;100295.00;;;;4993693;27;92335;-68
2023/01/14 00:03:37;;;;;;;0.67;0.30;;;7.30;99.90;7.00;100293.00;;;;4993065;27;104785;-67
2023/01/14 00:06:03;;;;;;;1.60;0.30;;;7.10;99.90;7.00;100300.00;;;;4994202;27;108159;-67
2023/01/14 00:08:30;;;;;;;0.77;0.33;;;7.10;99.90;7.00;100297.00;;;;4995864;27;87844;-68
2023/01/14 00:10:56;;;;;;;0.97;0.43;;;7.50;99.90;6.90;100298.00;;;;4991547;27;87618;-67
2023/01/14 00:13:22;;;;;;;4.93;0.70;;;7.10;99.90;6.90;100302.00;;;;4991836;27;109338;-68
2023/01/14 00:15:55;;;;;;;1.27;0.70;;;7.00;99.90;6.90;100299.00;;;;4993884;27;111083;-66
2023/01/14 00:18:22;;;;;;;1.63;0.97;;;7.10;99.90;7.00;100303.00;;;;4994997;27;87247;-67
2023/01/14 00:21:14;;;;;;;0.83;0.60;;;7.40;99.90;7.00;100310.00;;;;4995004;27;88248;-66
2023/01/14 00:23:41;;;;;;;0.40;0.40;;;7.10;99.90;7.10;100305.00;;;;4991856;27;115539;-67
2023/01/14 00:26:13;;;;;;;3.50;0.43;;;7.70;99.90;7.10;100322.00;;;;4993206;27;88526;-66
2023/01/14 00:28:41;;;;;;;0.40;0.40;;;7.20;99.90;7.10;100315.00;;;;4992625;27;101693;-65
2023/01/14 00:31:12;;;;;;;1.80;0.60;;;7.70;99.90;7.10;100318.00;;;;4995158;27;88904;-67
2023/01/14 00:33:39;;;;;;;2.33;0.67;;;7.20;99.90;7.20;100324.00;;;;4994876;27;87858;-66
2023/01/14 00:36:08;;;;;;;2.97;0.93;;;7.50;99.90;7.20;100312.00;;;;4999473;27;87819;-65
2023/01/14 00:38:35;;;;;;;0.40;0.20;;;7.30;99.90;7.20;100313.00;;;;4995798;27;87876;-65
2023/01/14 00:41:24;;;;;;;0.30;0.27;;;8.10;99.90;7.30;100330.00;;;;4995358;27;88934;-64
2023/01/14 00:43:53;;;;;;;0.47;0.37;;;7.30;99.90;7.40;100322.00;;;;4991775;27;109237;-68
2023/01/14 00:46:29;;;;;;;1.20;0.60;;;7.70;99.90;7.40;100326.00;;;;4993702;27;101126;-65
2023/01/14 00:48:58;;;;;;;2.03;0.30;;;7.50;99.90;7.50;100326.00;;;;4992835;27;88005;-68
2023/01/14 00:51:24;;;;;;;0.20;0.20;;;7.60;99.90;7.50;100330.00;;;;4997378;27;89667;-66
2023/01/14 00:53:50;;;;;;;1.33;0.43;;;7.60;99.90;7.50;100339.00;;;;4994909;27;91180;-66
2023/01/14 00:56:18;;;;;;;0.67;0.40;;;7.60;99.90;7.50;100347.00;;;;4999454;27;87904;-66
2023/01/14 00:58:44;;;;;;;0.20;0.20;;;7.60;99.90;7.60;100353.00;;;;4991900;27;87906;-67
2023/01/14 01:01:10;;;;;;;0.87;0.40;;;7.70;99.90;7.60;100347.00;;;;4995852;27;88527;-65
2023/01/14 01:03:46;;;;;;;0.63;0.37;;;7.60;99.90;7.60;100347.00;;;;4994601;27;118229;-65
2023/01/14 01:06:14;;;;;;;3.30;1.00;;;7.80;99.90;7.60;100335.00;;;;4990296;27;101014;-65
2023/01/14 01:08:40;;;;;;;0.20;0.20;;;7.70;99.90;7.60;100344.00;;;;4994604;27;87119;-65
2023/01/14 01:11:07;;;;;;;2.17;0.67;;;7.70;99.90;7.60;100354.00;;;;4995353;27;89082;-66
2023/01/14 01:13:34;;;;;;;1.50;0.40;;;7.70;99.90;7.60;100353.00;;;;4993202;27;87950;-66
2023/01/14 01:16:07;;;;;;;3.70;0.63;;;7.60;99.90;7.50;100354.00;;;;4993257;27;101529;-67
2023/01/14 01:18:33;;;;;;;0.50;0.43;;;7.70;99.90;7.50;100360.00;;;;4994948;27;101915;-65
2023/01/14 01:21:14;;;;;;;1.37;0.50;;;7.60;99.90;7.50;100351.00;;;;4992942;27;117555;-65
2023/01/14 01:23:41;;;;;;;0.50;0.30;;;7.60;99.90;7.50;100347.00;;;;4993028;27;87972;-66
2023/01/14 01:26:15;;;;;;;1.23;0.30;;;7.70;99.90;7.50;100350.00;;;;4991919;27;101357;-67
2023/01/14 01:28:41;;;;;;;0.63;0.30;;;7.60;99.90;7.50;100350.00;;;;4992439;27;87627;-65
2023/01/14 01:31:11;;;;;;;2.90;0.80;;;7.80;99.90;7.50;100356.00;;;;4991685;27;98403;-65
2023/01/14 01:33:38;;;;;;;1.50;0.60;;;7.70;99.90;7.60;100361.00;;;;4989424;27;87830;-66
2023/01/14 01:36:13;;;;;;;0.30;0.30;;;7.70;99.90;7.60;100366.00;;;;4994043;27;87827;-67
2023/01/14 01:38:39;;;;;;;0.70;0.20;;;7.70;99.90;7.60;100372.00;;;;4994033;27;87834;-66
2023/01/14 01:41:05;;;;;;;0.90;0.67;;;7.70;99.90;7.60;100377.00;;;;4983852;27;118796;-65
2023/01/14 01:43:32;;;;;;;0.60;0.50;;;7.70;99.90;7.70;100375.00;;;;4987882;27;117602;-67
2023/01/14 01:46:00;;;;;;;1.63;0.63;;;7.80;99.90;7.70;100380.00;;;;4990233;27;87878;-66
2023/01/14 01:48:43;;;;;;;0.47;0.20;;;7.80;99.90;7.70;100382.00;;;;4992906;27;87953;-65
2023/01/14 01:51:23;;;;;;;0.83;0.47;;;7.80;99.90;7.70;100381.00;;;;4991890;27;87757;-68
2023/01/14 01:53:51;;;;;;;0.40;0.40;;;7.80;99.90;7.70;100381.00;;;;4989762;27;108398;-66
2023/01/14 01:56:26;;;;;;;4.93;0.50;;;7.80;99.90;7.70;100389.00;;;;4989885;27;101626;-68
2023/01/14 01:58:52;;;;;;;0.50;0.40;;;7.80;99.90;7.70;100385.00;;;;4993046;27;102806;-65
2023/01/14 02:01:19;;;;;;;0.40;0.40;;;8.10;99.90;7.70;100382.00;;;;4992534;27;115553;-66
2023/01/14 02:03:48;;;;;;;3.67;0.47;;;7.80;99.90;7.70;100376.00;;;;4987101;27;108748;-65
2023/01/14 02:06:15;;;;;;;1.20;0.70;;;7.80;99.90;7.70;100395.00;;;;4989762;27;109583;-67
2023/01/14 02:08:50;;;;;;;0.60;0.33;;;7.80;99.90;7.70;100390.00;;;;4997520;27;87830;-68
2023/01/14 02:11:46;;;;;;;1.57;0.60;;;7.80;99.90;7.60;100389.00;;;;5005227;27;87939;-66
2023/01/14 02:14:52;;;;;;;0.50;0.43;;;7.90;99.90;7.70;100396.00;;;;4996583;27;99183;-67
2023/01/14 02:17:45;;;;;;;1.93;1.03;;;7.80;99.90;7.60;100391.00;;;;4992561;27;87894;-68
2023/01/14 02:20:37;;;;;;;3.83;0.83;;;7.80;99.90;7.60;100396.00;;;;4992569;27;87715;-66
2023/01/14 02:23:47;;;;;;;0.30;0.30;;;7.70;99.90;7.60;100395.00;;;;4986801;27;108684;-67
2023/01/14 02:26:37;;;;;;;3.13;0.90;;;7.80;99.90;7.60;100396.00;;;;4994903;27;87234;-68
2023/01/14 02:29:38;;;;;;;1.40;0.80;;;7.80;99.90;7.60;100400.00;;;;4990060;27;87998;-67
2023/01/14 02:32:21;;;;;;;1.53;0.57;;;7.80;99.90;7.70;100401.00;;;;4987429;27;90134;-66
2023/01/14 02:35:15;;;;;;;4.13;1.00;;;7.80;99.90;7.70;100409.00;;;;4990694;27;94348;-66
2023/01/14 02:38:05;;;;;;;0.60;0.27;;;7.70;99.90;7.70;100403.00;;;;4990263;27;88905;-67
2023/01/14 02:40:39;;;;;;;0.40;0.30;;;7.80;99.90;7.70;100413.00;;;;4990309;27;93444;-68
2023/01/14 02:46:37;;;;;;;0.90;0.57;;;7.80;99.90;7.70;100419.00;;;;4989082;27;87816;-67
2023/01/14 02:49:07;;;;;;;8.00;0.60;;;7.80;99.90;7.70;100425.00;;;;4993520;27;87803;-68
2023/01/14 02:51:36;;;;;;;1.50;0.93;;;7.90;99.90;7.70;100419.00;;;;4992273;27;87859;-66
2023/01/14 02:54:01;;;;;;;1.90;1.10;;;7.80;99.90;7.70;100431.00;;;;4992484;27;87223;-66
2023/01/14 02:56:27;;;;;;;0.87;0.70;;;7.80;99.90;7.70;100432.00;;;;4987657;27;111353;-66
2023/01/14 02:59:12;;;;;;;1.67;0.70;;;7.90;99.90;7.70;100430.00;;;;4990703;27;117268;-67
2023/01/14 03:02:08;;;;;;;4.40;0.77;;;7.80;99.90;7.70;100431.00;;;;4989571;27;103026;-67
2023/01/14 03:04:49;;;;;;;0.30;0.20;;;7.90;99.90;7.70;100427.00;;;;4988921;27;87380;-66
2023/01/14 03:07:18;;;;;;;1.33;0.77;;;7.80;99.90;7.70;100434.00;;;;4990230;27;88649;-67
2023/01/14 03:10:11;;;;;;;0.67;0.53;;;7.00;99.90;7.70;100437.00;;;;4990752;27;96669;-68
2023/01/14 03:13:04;;;;;;;0.97;0.50;;;7.90;99.90;7.70;100437.00;;;;4992101;27;88050;-68
2023/01/14 03:15:46;;;;;;;2.23;0.70;;;7.80;99.90;7.70;100444.00;;;;4988323;27;101821;-67
2023/01/14 03:18:28;;;;;;;0.37;0.37;;;7.80;99.90;7.60;100438.00;;;;4993045;27;90741;-68
2023/01/14 03:21:03;;;;;;;1.17;0.50;;;7.80;99.90;7.60;100446.00;;;;4993739;27;88469;-66
2023/01/14 03:23:34;;;;;;;0.93;0.43;;;7.80;99.90;7.60;100444.00;;;;4988392;27;91581;-66
2023/01/14 03:26:03;;;;;;;0.30;0.30;;;7.80;99.90;7.70;100446.00;;;;4992060;27;94785;-66
2023/01/14 03:28:36;;;;;;;1.70;0.60;;;7.70;99.90;7.70;100454.00;;;;4981718;27;117059;-66
2023/01/14 03:31:08;;;;;;;1.20;0.40;;;7.70;99.90;7.60;100453.00;;;;4988182;27;108442;-67
2023/01/14 03:33:39;;;;;;;0.37;0.37;;;7.70;99.90;7.60;100459.00;;;;4990813;27;87886;-66
2023/01/14 03:36:07;;;;;;;1.57;0.77;;;7.80;99.90;7.60;100464.00;;;;4992345;27;99971;-66
2023/01/14 03:38:46;;;;;;;2.20;0.80;;;7.80;99.90;7.60;100464.00;;;;4989020;27;89063;-66
2023/01/14 03:42:17;;;;;;;1.30;0.43;;;7.80;99.90;7.60;100467.00;;;;4989518;27;87689;-66
2023/01/14 03:44:08;;;;;;;1.73;0.47;;;7.70;99.90;7.60;100465.00;;;;4988228;27;87931;-67
2023/01/14 03:46:35;;;;;;;1.37;0.43;;;7.70;99.90;7.70;100465.00;;;;4989889;27;88857;-67
2023/01/14 03:49:01;;;;;;;1.60;0.53;;;7.80;99.90;7.70;100466.00;;;;4990000;27;117712;-68
2023/01/14 03:51:42;;;;;;;3.30;0.70;;;7.70;99.90;7.60;100466.00;;;;4988168;27;117469;-67
2023/01/14 03:54:35;;;;;;;1.40;0.60;;;8.00;99.90;7.60;100476.00;;;;4992563;27;102536;-67
2023/01/14 03:57:11;;;;;;;1.43;0.40;;;7.70;99.90;7.60;100472.00;;;;4991034;27;87785;-66
2023/01/14 03:59:47;;;;;;;1.40;0.50;;;7.70;99.90;7.60;100475.00;;;;4988058;27;111603;-69
2023/01/14 04:02:13;;;;;;;0.67;0.57;;;7.70;99.90;7.60;100478.00;;;;4991337;27;88246;-68
2023/01/14 04:04:41;;;;;;;4.40;0.67;;;7.90;99.90;7.60;100476.00;;;;4987926;27;87792;-67
2023/01/14 04:07:07;;;;;;;1.10;0.47;;;7.80;99.90;7.60;100478.00;;;;4991697;27;87913;-66
2023/01/14 04:09:33;;;;;;;0.50;0.50;;;7.70;99.90;7.60;100476.00;;;;4991199;27;115719;-68
2023/01/14 04:11:59;;;;;;;4.30;1.27;;;7.60;99.90;7.50;100481.00;;;;4990752;27;115697;-66
2023/01/14 04:17:09;;;;;;;2.20;0.40;;;7.60;99.90;7.40;100467.00;;;;4989957;27;87606;-66
2023/01/14 04:19:34;;;;;;;3.23;0.50;;;7.20;99.90;7.40;100475.00;;;;4989820;27;118317;-67
2023/01/14 04:22:00;;;;;;;0.63;0.50;;;7.70;99.90;7.40;100476.00;;;;4989900;27;118198;-67
2023/01/14 04:24:26;;;;;;;0.63;0.60;;;7.50;99.90;7.40;100479.00;;;;4993015;27;110368;-66
2023/01/14 04:26:51;;;;;;;0.50;0.47;;;7.90;99.90;7.30;100470.00;;;;4989788;27;87806;-66
2023/01/14 04:29:17;;;;;;;2.17;0.83;;;7.50;99.90;7.30;100491.00;;;;4987513;27;116841;-66
2023/01/14 04:31:42;;;;;;;3.60;0.40;;;7.50;99.90;7.30;100490.00;;;;4987170;27;117908;-67
2023/01/14 04:34:09;;;;;;;0.70;0.37;;;7.40;99.90;7.30;100491.00;;;;4986277;27;110057;-66
2023/01/14 04:36:34;;;;;;;2.07;0.87;;;7.40;99.90;7.20;100490.00;;;;4995560;27;94112;-67
2023/01/14 04:39:00;;;;;;;0.93;0.50;;;7.90;99.90;7.20;100488.00;;;;4995597;27;120119;-67
2023/01/14 04:44:10;;;;;;;2.10;0.50;;;7.80;99.90;7.00;100487.00;;;;4992629;27;88772;-66
2023/01/14 04:46:36;;;;;;;3.47;0.40;;;7.20;99.90;7.00;100482.00;;;;4995228;27;91789;-66
2023/01/14 04:49:02;;;;;;;0.40;0.33;;;7.10;99.90;7.00;100492.00;;;;4994214;27;117725;-66
2023/01/14 04:51:27;;;;;;;2.20;0.90;;;7.80;99.90;7.00;100492.00;;;;4988993;27;117388;-66
2023/01/14 04:53:54;;;;;;;0.53;0.40;;;7.40;99.90;7.00;100495.00;;;;4994013;27;111208;-68
2023/01/14 04:56:20;;;;;;;2.07;1.00;;;7.70;99.90;7.00;100488.00;;;;4994799;27;87945;-66
2023/01/14 04:58:46;;;;;;;1.30;0.47;;;7.20;99.90;7.00;100487.00;;;;4993754;27;118069;-68
2023/01/14 05:01:12;;;;;;;0.93;0.53;;;7.20;99.90;7.00;100492.00;;;;4997095;27;88459;-68
2023/01/14 05:03:38;;;;;;;0.70;0.50;;;7.10;99.90;7.10;100501.00;;;;4996952;27;110247;-67
2023/01/14 05:06:05;;;;;;;0.43;0.30;;;7.30;99.90;7.10;100496.00;;;;4994838;27;87773;-67
2023/01/14 05:08:30;;;;;;;0.40;0.40;;;7.20;99.90;7.10;100506.00;;;;4994643;27;90835;-66
2023/01/14 05:10:56;;;;;;;0.70;0.43;;;7.20;99.90;7.20;100511.00;;;;4991920;27;120360;-69
2023/01/14 05:13:22;;;;;;;1.53;0.30;;;7.30;99.90;7.10;100502.00;;;;4992720;27;110001;-66
2023/01/14 05:15:47;;;;;;;0.53;0.30;;;7.30;99.90;7.00;100497.00;;;;4994311;27;111315;-69
2023/01/14 05:18:15;;;;;;;0.53;0.53;;;7.20;99.90;6.90;100504.00;;;;4995854;27;88925;-66
2023/01/14 05:20:43;;;;;;;0.30;0.30;;;7.00;99.90;6.80;100503.00;;;;4993743;27;87863;-68
2023/01/14 05:23:15;;;;;;;2.30;0.80;;;6.80;99.90;6.60;100507.00;;;;4994484;27;96602;-68
2023/01/14 05:25:42;;;;;;;0.97;0.70;;;7.30;99.90;6.50;100502.00;;;;4995985;27;88372;-68
2023/01/14 05:28:15;;;;;;;1.60;0.90;;;7.00;99.90;6.40;100501.00;;;;4991586;27;88159;-65
2023/01/14 05:30:41;;;;;;;2.80;0.50;;;7.30;99.90;6.30;100507.00;;;;4996270;27;88373;-65
2023/01/14 05:33:08;;;;;;;0.43;0.43;;;6.50;99.90;6.20;100512.00;;;;4992105;27;108926;-65
2023/01/14 05:35:33;;;;;;;1.40;0.73;;;6.40;99.90;6.20;100511.00;;;;4995995;27;91517;-70
2023/01/14 05:37:59;;;;;;;4.83;1.17;;;7.00;99.90;6.20;100520.00;;;;4996312;27;88284;-67
2023/01/14 05:40:25;;;;;;;1.87;0.40;;;7.20;99.90;6.20;100515.00;;;;4992662;27;116919;-67
2023/01/14 05:45:49;;;;;;;3.27;1.17;;;7.00;99.90;6.20;100501.00;;;;4991940;27;87685;-69
2023/01/14 05:48:23;;;;;;;1.60;0.50;;;6.40;99.90;6.20;100511.00;;;;4990987;27;88327;-67
2023/01/14 05:50:56;;;;;;;1.03;0.40;;;6.30;99.90;6.20;100514.00;;;;4995009;27;88020;-68
2023/01/14 05:53:22;;;;;;;0.53;0.53;;;6.70;99.90;6.20;100521.00;;;;4991647;27;87836;-67
2023/01/14 05:55:49;;;;;;;0.70;0.60;;;6.60;99.90;6.30;100519.00;;;;4993923;27;87930;-66
2023/01/14 05:58:16;;;;;;;2.20;0.23;;;6.50;99.90;6.30;100528.00;;;;4990604;27;89908;-67
2023/01/14 06:06:21;;;;;;;1.80;0.97;;;6.60;99.90;6.50;100521.00;;;;4991206;27;87997;-65
2023/01/14 06:08:51;;;;;;;0.50;0.43;;;6.60;99.90;6.60;100525.00;;;;4992451;27;89096;-67
2023/01/14 06:11:18;;;;;;;0.97;0.93;;;6.60;99.90;6.60;100528.00;;;;4983597;28;87699;-67
2023/01/14 06:13:49;;;;;;;5.80;0.87;;;6.70;99.90;6.70;100530.00;;;;4994179;27;87693;-67
2023/01/14 06:16:15;;;;;;;1.70;0.93;;;7.20;99.90;6.70;100532.00;;;;4989474;27;87135;-67
2023/01/14 06:18:44;;;;;;;2.40;0.40;;;6.90;99.90;6.70;100547.00;;;;4990252;27;110121;-67
2023/01/14 06:21:16;;;;;;;1.60;1.03;;;6.80;99.90;6.80;100542.00;;;;4990995;27;87787;-67
2023/01/14 06:23:42;;;;;;;3.73;0.53;;;6.90;99.90;6.90;100553.00;;;;4991857;27;88746;-68
2023/01/14 06:26:14;;;;;;;1.67;0.40;;;7.00;99.90;6.90;100537.00;;;;4993600;27;99137;-66
2023/01/14 06:28:40;;;;;;;0.47;0.47;;;7.00;99.90;7.00;100553.00;;;;4990685;27;88443;-65
2023/01/14 06:31:15;;;;;;;4.20;0.80;;;7.10;99.90;7.00;100544.00;;;;4993563;27;88920;-66
2023/01/14 06:33:42;;;;;;;2.73;0.93;;;7.10;99.90;7.00;100548.00;;;;4991353;27;87981;-65
2023/01/14 06:36:10;;;;;;;2.87;0.83;;;7.10;99.90;7.10;100540.00;;;;4991201;27;87811;-66
2023/01/14 06:38:37;;;;;;;1.43;1.17;;;7.20;99.90;7.10;100556.00;;;;4989663;27;87929;-67
2023/01/14 06:41:04;;;;;;;7.10;1.10;;;7.20;99.90;7.20;100556.00;;;;4990788;27;89671;-67
2023/01/14 06:43:30;;;;;;;1.60;0.70;;;7.20;99.90;7.20;100559.00;;;;4998999;27;87825;-66
2023/01/14 06:45:57;;;;;;;1.63;0.93;;;7.30;99.90;7.20;100572.00;;;;4999623;27;87598;-66
2023/01/14 06:48:25;;;;;;;0.83;0.60;;;7.30;99.90;7.20;100554.00;;;;4986777;27;105160;-67
2023/01/14 06:50:51;;;;;;;1.27;0.70;;;7.30;99.90;7.20;100571.00;;;;4990919;27;109730;-65
2023/01/14 06:53:18;;;;;;;0.20;0.20;;;7.30;99.90;7.20;100560.00;;;;4985423;27;97442;-66
2023/01/14 06:55:44;;;;;;;0.87;0.73;;;7.30;99.90;7.20;100564.00;;;;4963368;27;87889;-67
2023/01/14 06:58:10;;;;;;;2.93;0.80;;;7.40;99.90;7.30;100560.00;;;;4966682;28;106017;-67
2023/01/14 07:00:37;;;;;;;1.80;1.03;;;7.40;99.90;7.30;100555.00;;;;4969029;28;87945;-66
2023/01/14 07:03:02;;;;;;;1.83;0.87;;;7.40;99.90;7.30;100561.00;;;;4966574;28;87964;-66
2023/01/14 07:05:28;;;;;;;0.57;0.50;;;7.40;99.90;7.30;100559.00;;;;4967780;28;89519;-66
2023/01/14 07:07:54;;;;;;;3.70;0.80;;;7.70;99.90;7.30;100554.00;;;;4964934;28;108140;-66
2023/01/14 07:10:20;;;;;;;2.43;1.20;;;7.50;99.90;7.30;100553.00;;;;4966948;28;115517;-67
2023/01/14 07:12:51;;;;;;;0.80;0.70;;;7.50;99.90;7.40;100545.00;;;;4967225;28;99770;-68
2023/01/14 07:15:19;;;;;;;3.90;1.53;;;7.50;99.90;7.40;100542.00;;;;4966486;28;88011;-66
2023/01/14 07:17:46;;;;;;;1.00;0.90;;;7.50;99.90;7.40;100558.00;;;;4966164;28;93231;-68
2023/01/14 07:20:13;;;;;;;1.10;0.50;;;7.40;99.90;7.40;100553.00;;;;4966335;28;88280;-66
2023/01/14 07:22:38;;;;;;;3.60;0.90;;;7.50;99.90;7.40;100557.00;;;;4967114;28;107298;-68
2023/01/14 07:25:06;;;;;;;1.60;1.30;;;7.50;99.90;7.40;100550.00;;;;4965917;28;108380;-67
2023/01/14 07:27:32;;;;;;;0.93;0.67;;;7.50;99.90;7.40;100548.00;;;;4966932;28;105866;-66
2023/01/14 07:29:58;;;;;;;4.37;0.80;;;8.20;99.90;7.40;100556.00;;;;4968348;28;116723;-67
2023/01/14 07:32:25;;;;;;;1.07;0.60;;;7.50;99.90;7.40;100559.00;;;;4968977;28;87718;-66
2023/01/14 07:34:51;;;;;;;2.03;0.73;;;7.70;99.90;7.40;100561.00;;;;4981394;27;87861;-68
2023/01/14 07:37:17;;;;;;;4.23;0.57;;;7.80;99.90;7.40;100569.00;;;;4966180;28;119156;-67
2023/01/14 07:39:43;;;;;;;6.83;0.77;;;7.60;99.90;7.40;100563.00;;;;4963874;28;89940;-68
2023/01/14 07:42:09;;;;;;;0.63;0.57;;;7.60;99.90;7.40;100565.00;;;;4968765;28;111487;-68
2023/01/14 07:44:35;;;;;;;2.47;0.93;;;7.50;99.90;7.40;100558.00;;;;4967287;28;103282;-66
2023/01/14 07:47:01;;;;;;;0.43;0.43;;;7.50;99.90;7.40;100552.00;;;;4967797;28;100687;-69
2023/01/14 07:49:27;;;;;;;2.07;1.00;;;7.50;99.90;7.30;100561.00;;;;4963829;28;117292;-68
2023/01/14 07:51:52;;;;;;;8.50;1.17;;;7.50;99.90;7.30;100560.00;;;;4966057;28;87964;-66
2023/01/14 07:54:19;;;;;;;1.83;0.77;;;7.50;99.90;7.20;100559.00;;;;4968055;28;108383;-67
2023/01/14 07:56:47;;;;;;;1.00;0.70;;;7.70;99.90;7.30;100551.00;;;;4966046;28;117128;-67
2023/01/14 07:59:13;;;;;;;1.00;0.90;;;7.40;99.90;7.40;100554.00;;;;4967396;28;104907;-67
2023/01/14 08:01:38;;;;;;;4.80;0.97;;;8.10;99.90;7.50;100553.00;;;;4965275;28;109006;-68
2023/01/14 08:04:04;;;;;;;2.87;1.07;;;7.90;99.90;7.60;100542.00;;;;4964196;28;107201;-69
2023/01/14 08:06:30;;;;;;;1.30;0.73;;;7.70;99.90;7.70;100549.00;;;;4965252;28;91751;-68
2023/01/14 08:08:58;;;;;;;2.77;0.77;;;7.80;99.90;7.90;100547.00;;;;4964282;28;113370;-66
2023/01/14 08:11:24;;;;;;;3.40;0.83;;;7.90;99.90;8.00;100550.00;;;;4971378;28;87953;-68
2023/01/14 08:13:50;;;;;;;1.73;0.67;;;8.10;99.90;8.10;100550.00;;;;4967412;28;87972;-66
2023/01/14 08:16:16;;;;;;;3.83;1.00;;;8.20;99.90;8.20;100563.00;;;;4970005;27;107220;-66
2023/01/14 08:18:42;;;;;;;0.87;0.60;;;8.30;99.90;8.30;100552.00;;;;4969713;28;116287;-67
2023/01/14 08:21:10;;;;;;;6.13;1.43;;;8.40;99.90;8.40;100551.00;;;;4968885;28;111700;-69
2023/01/14 08:23:36;;;;;;;1.00;0.90;;;8.50;99.90;8.40;100547.00;;;;4964339;28;89288;-67
2023/01/14 08:26:05;;;;;;;6.33;0.97;;;8.60;99.90;8.30;100550.00;;;;4968697;28;118869;-69
2023/01/14 08:28:32;;;;;;;2.90;0.90;;;8.50;99.90;8.10;100552.00;;;;4967712;28;107142;-68
2023/01/14 08:31:12;;;;;;;1.60;0.97;;;8.40;99.90;7.90;100552.00;;;;4967931;28;88052;-66
2023/01/14 08:33:40;;;;;;;1.63;0.70;;;8.20;99.90;7.80;100542.00;;;;4974153;28;87706;-68
2023/01/14 08:36:10;;;;;;;2.07;1.03;;;8.00;99.90;7.60;100559.00;;;;4969151;28;90979;-68
2023/01/14 08:38:39;;;;;;;1.30;0.67;;;7.90;99.90;7.50;100548.00;;;;4968051;28;87998;-67
2023/01/14 08:41:12;;;;;;;0.70;0.60;;;7.80;99.90;7.50;100534.00;;;;4970976;28;87832;-68
2023/01/14 08:43:38;;;;;;;4.63;1.17;;;7.70;99.90;7.70;100542.00;;;;4956936;28;87488;-66
2023/01/14 08:46:05;;;;;;;3.60;0.90;;;7.80;99.90;8.00;100548.00;;;;4973659;28;88831;-66
2023/01/14 08:48:32;;;;;;;1.60;0.70;;;8.20;99.90;8.10;100533.00;;;;4971152;28;90098;-66
2023/01/14 08:51:07;;;;;;;2.17;0.53;;;8.20;99.90;8.30;100533.00;;;;4973038;28;101791;-66
2023/01/14 08:53:35;;;;;;;1.60;1.00;;;8.40;99.90;8.50;100533.00;;;;4969213;28;87790;-66
2023/01/14 08:56:03;;;;;;;1.80;0.83;;;8.50;99.90;8.60;100526.00;;;;4972310;28;88187;-67
2023/01/14 08:58:29;;;;;;;0.67;0.67;;;8.70;99.90;8.80;100527.00;;;;4968087;28;90304;-68
2023/01/14 09:01:02;;;;;;;2.23;1.00;;;8.80;99.90;9.00;100528.00;;;;4971014;28;88216;-69
2023/01/14 09:03:30;;;;;;;1.30;0.80;;;9.10;99.90;9.10;100534.00;;;;4971280;28;87858;-66
2023/01/14 09:06:00;;;;;;;0.97;0.73;;;9.30;99.90;9.20;100533.00;;;;4971130;28;88548;-66
2023/01/14 09:17:07;;;;;;;5.93;1.00;;;9.60;99.90;9.70;100553.00;;;;4969910;28;88792;-66
2023/01/14 09:19:49;;;;;;;1.33;0.43;;;9.70;99.60;9.80;100549.00;;;;4965855;28;88621;-66
2023/01/14 09:22:22;;;;;;;0.70;0.67;;;9.80;99.30;9.80;100556.00;;;;4969886;28;88361;-68
2023/01/14 09:24:48;;;;;;;1.87;0.90;;;8.80;98.70;10.00;100543.00;;;;4970008;28;102744;-66
2023/01/14 09:27:14;;;;;;;2.57;1.17;;;10.00;98.60;10.00;100541.00;;;;4969719;28;88630;-67
2023/01/14 09:29:40;;;;;;;2.30;0.97;;;10.10;97.80;10.10;100531.00;;;;4968750;28;97462;-66
2023/01/14 09:32:11;;;;;;;2.47;0.83;;;10.20;97.30;10.20;100540.00;;;;4969556;28;110628;-68
2023/01/14 09:34:50;;;;;;;1.67;0.90;;;10.30;97.20;10.30;100550.00;;;;4968363;28;87157;-67
2023/01/14 09:37:23;;;;;;;4.47;1.23;;;10.30;96.70;10.30;100541.00;;;;4971117;28;88195;-68
2023/01/14 09:39:50;;;;;;;1.30;0.87;;;10.50;96.80;10.50;100543.00;;;;4967897;28;88232;-68
2023/01/14 09:42:29;;;;;;;2.10;0.50;;;10.50;96.00;10.50;100534.00;;;;4967813;28;89626;-67
2023/01/14 09:45:26;;;;;;;1.93;0.87;;;10.60;95.10;10.50;100537.00;;;;4957486;28;88060;-68
2023/01/14 09:47:55;;;;;;;3.03;1.03;;;10.60;95.80;10.60;100534.00;;;;4966715;28;107567;-67
2023/01/14 09:50:35;;;;;;;0.90;0.80;;;10.60;95.50;10.70;100543.00;;;;4970121;28;87860;-66
2023/01/14 09:53:13;;;;;;;0.90;0.87;;;10.70;95.40;10.80;100538.00;;;;4970403;28;101911;-66
2023/01/14 09:55:52;;;;;;;1.73;1.00;;;10.80;94.50;10.90;100545.00;;;;4967834;28;87755;-67
2023/01/14 09:58:38;;;;;;;2.17;0.90;;;10.90;94.90;11.00;100522.00;;;;4963033;28;106536;-67
2023/01/14 10:01:30;;;;;;;2.17;1.10;;;11.00;94.50;11.00;100525.00;;;;4971364;28;87754;-66
2023/01/14 10:04:10;;;;;;;2.63;1.53;;;11.10;94.60;11.00;100521.00;;;;4969925;28;88131;-66
2023/01/14 10:06:38;;;;;;;3.77;0.50;;;11.10;94.00;11.00;100505.00;;;;4966808;28;97856;-66
2023/01/14 10:09:17;;;;;;;5.43;0.83;;;11.10;94.40;11.00;100503.00;;;;4967997;28;88873;-66
2023/01/14 10:11:45;;;;;;;2.30;0.90;;;11.10;93.80;10.80;100508.00;;;;4966502;28;89982;-67
2023/01/14 10:14:21;;;;;;;1.63;0.90;;;11.00;93.80;10.60;100491.00;;;;4967308;28;88121;-67
2023/01/14 10:17:02;;;;;;;3.17;1.20;;;10.80;93.90;10.50;100482.00;;;;4962368;28;100343;-68
2023/01/14 10:19:43;;;;;;;3.30;1.47;;;10.70;94.30;10.60;100486.00;;;;4966293;28;110616;-67
2023/01/14 10:22:44;;;;;;;2.37;0.83;;;10.60;94.20;10.60;100480.00;;;;4968332;28;87796;-67
2023/01/14 10:25:21;;;;;;;7.37;1.13;;;10.70;93.90;10.60;100480.00;;;;4966546;28;101762;-67
2023/01/14 10:27:55;;;;;;;3.60;1.20;;;10.70;94.10;10.60;100485.00;;;;4969371;28;86998;-66
2023/01/14 10:30:23;;;;;;;1.03;0.93;;;10.70;94.30;10.60;100482.00;;;;4965585;28;95881;-66
2023/01/14 10:32:51;;;;;;;3.43;1.30;;;10.70;93.50;10.30;100476.00;;;;4966674;28;100610;-68
2023/01/14 10:35:32;;;;;;;1.00;0.73;;;10.50;92.90;10.10;100465.00;;;;4968603;28;89213;-66
2023/01/14 10:37:58;;;;;;;7.43;1.27;;;10.40;93.60;10.00;100461.00;;;;4968402;28;88010;-66
2023/01/14 10:40:26;;;;;;;2.80;1.10;;;10.10;94.00;9.80;100464.00;;;;4965533;28;98481;-68
2023/01/14 10:42:54;;;;;;;4.13;1.23;;;10.00;94.40;9.80;100444.00;;;;4966278;28;88226;-68
2023/01/14 10:45:19;;;;;;;0.90;0.70;;;9.90;94.60;9.90;100451.00;;;;4969258;28;98190;-66
2023/01/14 10:47:48;;;;;;;2.60;1.13;;;9.90;94.90;10.10;100446.00;;;;4969845;28;87768;-68
2023/01/14 10:50:26;;;;;;;1.70;0.70;;;10.00;94.70;10.20;100441.00;;;;4964240;28;90142;-68
2023/01/14 10:52:53;;;;;;;4.43;1.30;;;10.20;94.10;10.30;100437.00;;;;4968645;28;87056;-67
2023/01/14 10:55:28;;;;;;;2.70;0.97;;;10.30;94.20;10.40;100439.00;;;;4965350;28;100777;-66
2023/01/14 10:58:05;;;;;;;1.23;0.47;;;10.40;94.00;10.60;100423.00;;;;4961498;28;92490;-67
2023/01/14 11:00:39;;;;;;;6.07;0.80;;;10.50;93.50;10.60;100425.00;;;;4967405;28;89591;-66
2023/01/14 11:03:18;;;;;;;2.20;0.50;;;10.60;92.80;10.70;100413.00;;;;4968464;28;89028;-67
2023/01/14 11:05:55;;;;;;;2.90;1.10;;;10.70;92.70;10.60;100417.00;;;;4964966;28;88017;-67
2023/01/14 11:08:48;;;;;;;3.40;1.67;;;10.70;92.00;10.60;100407.00;;;;4967744;28;88126;-67
2023/01/14 11:11:25;;;;;;;1.80;1.00;;;10.70;91.80;10.70;100405.00;;;;4967810;28;88036;-68
2023/01/14 11:13:54;;;;;;;0.77;0.60;;;10.70;92.50;10.90;100409.00;;;;4970182;28;88197;-68
2023/01/14 11:16:27;;;;;;;4.97;1.23;;;10.90;91.80;11.00;100393.00;;;;4969420;28;87917;-68
2023/01/14 11:19:21;;;;;;;9.43;1.30;;;11.00;91.10;11.10;100391.00;;;;4966384;28;86791;-68
2023/01/14 11:21:51;;;;;;;1.90;0.67;;;11.10;91.00;11.10;100391.00;;;;4975342;28;88913;-66
2023/01/14 11:24:36;;;;;;;0.77;0.57;;;11.10;88.90;11.10;100387.00;;;;4967407;28;88138;-68
2023/01/14 11:27:15;;;;;;;3.50;1.27;;;11.10;89.50;11.10;100378.00;;;;4974370;28;88882;-66
2023/01/14 11:29:58;;;;;;;3.20;1.10;;;11.10;89.50;11.10;100381.00;;;;4967112;28;103145;-67
2023/01/14 11:32:35;;;;;;;4.03;1.53;;;11.10;89.20;11.00;100380.00;;;;4962216;28;88318;-67
2023/01/14 11:35:04;;;;;;;2.60;0.87;;;11.10;87.20;10.80;100371.00;;;;4969261;28;99529;-66
2023/01/14 11:37:44;;;;;;;7.47;1.40;;;11.00;87.60;10.70;100375.00;;;;4967833;28;91412;-66
2023/01/14 11:43:22;;;;;;;3.33;0.97;;;10.70;88.70;10.50;100359.00;;;;4967896;28;87762;-66
2023/01/14 11:46:04;;;;;;;4.87;1.27;;;10.60;90.00;10.40;100355.00;;;;4967516;28;87877;-67